sensor_id;sensor_type;location;lat;lon;timestamp;temperature;humidity
1994;DHT22;998;49.906;10.908;2023-06-05T00:02:18;19.20;59.80
1994;DHT22;998;49.906;10.908;2023-06-05T00:04:47;19.10;59.90
1994;DHT22;998;49.906;10.908;2023-06-05T00:07:15;19.10;60.10
1994;DHT22;998;49.906;10.908;2023-06-05T00:09:42;19.00;60.00
1994;DHT22;998;49.906;10.908;2023-06-05T00:12:09;18.90;60.50
1994;DHT22;998;49.906;10.908;2023-06-05T00:14:37;18.90;61.20
1994;DHT22;998;49.906;10.908;2023-06-05T00:17:04;18.90;60.60
1994;DHT22;998;49.906;10.908;2023-06-05T00:19:35;18.80;60.40
1994;DHT22;998;49.906;10.908;2023-06-05T00:22:04;18.80;60.50
1994;DHT22;998;49.906;10.908;2023-06-05T00:24:31;18.80;60.70
1994;DHT22;998;49.906;10.908;2023-06-05T00:26:58;18.80;60.50
1994;DHT22;998;49.906;10.908;2023-06-05T00:29:26;18.70;60.70
1994;DHT22;998;49.906;10.908;2023-06-05T00:31:53;18.80;60.60
1994;DHT22;998;49.906;10.908;2023-06-05T00:34:20;18.70;60.90
1994;DHT22;998;49.906;10.908;2023-06-05T00:36:48;18.60;61.50
1994;DHT22;998;49.906;10.908;2023-06-05T00:39:18;18.60;61.60
1994;DHT22;998;49.906;10.908;2023-06-05T00:41:45;18.40;62.00
1994;DHT22;998;49.906;10.908;2023-06-05T00:44:12;18.40;62.40
1994;DHT22;998;49.906;10.908;2023-06-05T00:46:40;18.40;62.70
1994;DHT22;998;49.906;10.908;2023-06-05T00:49:08;18.30;62.60
1994;DHT22;998;49.906;10.908;2023-06-05T00:51:36;18.30;62.90
1994;DHT22;998;49.906;10.908;2023-06-05T00:54:05;18.20;62.90
1994;DHT22;998;49.906;10.908;2023-06-05T00:56:34;18.10;63.40
1994;DHT22;998;49.906;10.908;2023-06-05T00:59:02;18.10;63.70
1994;DHT22;998;49.906;10.908;2023-06-05T01:01:31;18.00;63.80
1994;DHT22;998;49.906;10.908;2023-06-05T01:04:00;18.00;63.80
1994;DHT22;998;49.906;10.908;2023-06-05T01:06:28;18.00;64.10
1994;DHT22;998;49.906;10.908;2023-06-05T01:08:57;18.10;63.70
1994;DHT22;998;49.906;10.908;2023-06-05T01:11:36;18.00;64.00
1994;DHT22;998;49.906;10.908;2023-06-05T01:14:11;18.00;64.00
1994;DHT22;998;49.906;10.908;2023-06-05T01:16:42;18.00;63.80
1994;DHT22;998;49.906;10.908;2023-06-05T01:19:14;17.90;64.30
1994;DHT22;998;49.906;10.908;2023-06-05T01:21:42;17.80;64.40
1994;DHT22;998;49.906;10.908;2023-06-05T01:24:11;17.70;64.70
1994;DHT22;998;49.906;10.908;2023-06-05T01:26:48;17.70;64.90
1994;DHT22;998;49.906;10.908;2023-06-05T01:29:23;17.60;64.80
1994;DHT22;998;49.906;10.908;2023-06-05T01:31:55;17.60;65.30
1994;DHT22;998;49.906;10.908;2023-06-05T01:34:25;17.50;65.60
1994;DHT22;998;49.906;10.908;2023-06-05T01:36:55;17.40;66.10
1994;DHT22;998;49.906;10.908;2023-06-05T01:39:25;17.20;66.40
1994;DHT22;998;49.906;10.908;2023-06-05T01:41:55;17.10;66.80
1994;DHT22;998;49.906;10.908;2023-06-05T01:44:24;17.00;67.50
1994;DHT22;998;49.906;10.908;2023-06-05T01:46:53;16.90;67.70
1994;DHT22;998;49.906;10.908;2023-06-05T01:49:20;16.80;67.80
1994;DHT22;998;49.906;10.908;2023-06-05T01:51:48;16.70;68.20
1994;DHT22;998;49.906;10.908;2023-06-05T01:54:16;16.80;68.10
1994;DHT22;998;49.906;10.908;2023-06-05T01:56:46;16.60;68.40
1994;DHT22;998;49.906;10.908;2023-06-05T01:59:13;16.60;68.50
1994;DHT22;998;49.906;10.908;2023-06-05T02:01:42;16.50;68.50
1994;DHT22;998;49.906;10.908;2023-06-05T02:04:10;16.40;68.60
1994;DHT22;998;49.906;10.908;2023-06-05T02:06:44;16.30;68.90
1994;DHT22;998;49.906;10.908;2023-06-05T02:09:13;16.40;68.90
1994;DHT22;998;49.906;10.908;2023-06-05T02:11:40;16.40;68.90
1994;DHT22;998;49.906;10.908;2023-06-05T02:14:12;16.40;68.60
1994;DHT22;998;49.906;10.908;2023-06-05T02:16:41;16.20;69.00
1994;DHT22;998;49.906;10.908;2023-06-05T02:19:09;16.10;69.40
1994;DHT22;998;49.906;10.908;2023-06-05T02:21:36;16.10;69.60
1994;DHT22;998;49.906;10.908;2023-06-05T02:24:04;16.30;69.10
1994;DHT22;998;49.906;10.908;2023-06-05T02:26:32;16.20;68.90
1994;DHT22;998;49.906;10.908;2023-06-05T02:29:01;16.10;69.40
1994;DHT22;998;49.906;10.908;2023-06-05T02:31:30;16.20;69.80
1994;DHT22;998;49.906;10.908;2023-06-05T02:33:57;16.10;70.00
1994;DHT22;998;49.906;10.908;2023-06-05T02:36:25;16.10;71.20
1994;DHT22;998;49.906;10.908;2023-06-05T02:38:52;15.90;71.00
1994;DHT22;998;49.906;10.908;2023-06-05T02:41:20;16.00;71.10
1994;DHT22;998;49.906;10.908;2023-06-05T02:43:48;15.90;71.50
1994;DHT22;998;49.906;10.908;2023-06-05T02:46:15;15.80;71.90
1994;DHT22;998;49.906;10.908;2023-06-05T02:48:44;15.70;72.30
1994;DHT22;998;49.906;10.908;2023-06-05T02:51:11;15.80;72.10
1994;DHT22;998;49.906;10.908;2023-06-05T02:53:39;15.80;72.20
1994;DHT22;998;49.906;10.908;2023-06-05T02:56:06;15.80;72.20
1994;DHT22;998;49.906;10.908;2023-06-05T02:58:33;15.80;72.20
1994;DHT22;998;49.906;10.908;2023-06-05T03:01:01;15.90;72.10
1994;DHT22;998;49.906;10.908;2023-06-05T03:03:30;15.90;72.00
1994;DHT22;998;49.906;10.908;2023-06-05T03:06:00;16.00;71.70
1994;DHT22;998;49.906;10.908;2023-06-05T03:08:30;16.00;71.90
1994;DHT22;998;49.906;10.908;2023-06-05T03:10:59;15.80;72.00
1994;DHT22;998;49.906;10.908;2023-06-05T03:13:27;15.80;72.40
1994;DHT22;998;49.906;10.908;2023-06-05T03:15:55;15.60;72.60
1994;DHT22;998;49.906;10.908;2023-06-05T03:18:24;15.70;72.50
1994;DHT22;998;49.906;10.908;2023-06-05T03:20:51;15.90;72.00
1994;DHT22;998;49.906;10.908;2023-06-05T03:23:22;15.90;71.70
1994;DHT22;998;49.906;10.908;2023-06-05T03:25:50;15.90;71.70
1994;DHT22;998;49.906;10.908;2023-06-05T03:28:18;15.90;71.90
1994;DHT22;998;49.906;10.908;2023-06-05T03:30:46;15.90;71.50
1994;DHT22;998;49.906;10.908;2023-06-05T03:33:14;15.80;71.80
1994;DHT22;998;49.906;10.908;2023-06-05T03:35:43;15.80;72.10
1994;DHT22;998;49.906;10.908;2023-06-05T03:38:13;15.80;71.80
1994;DHT22;998;49.906;10.908;2023-06-05T03:40:42;15.80;72.90
1994;DHT22;998;49.906;10.908;2023-06-05T03:43:09;15.90;72.20
1994;DHT22;998;49.906;10.908;2023-06-05T03:45:37;15.90;72.00
1994;DHT22;998;49.906;10.908;2023-06-05T03:48:06;15.70;72.20
1994;DHT22;998;49.906;10.908;2023-06-05T03:50:35;15.70;72.80
1994;DHT22;998;49.906;10.908;2023-06-05T03:53:04;15.70;72.80
1994;DHT22;998;49.906;10.908;2023-06-05T03:55:31;15.70;73.00
1994;DHT22;998;49.906;10.908;2023-06-05T03:58:10;15.60;73.20
1994;DHT22;998;49.906;10.908;2023-06-05T04:00:39;15.70;73.10
1994;DHT22;998;49.906;10.908;2023-06-05T04:03:08;15.50;73.70
1994;DHT22;998;49.906;10.908;2023-06-05T04:05:37;15.50;74.10
1994;DHT22;998;49.906;10.908;2023-06-05T04:08:04;15.60;73.80
1994;DHT22;998;49.906;10.908;2023-06-05T04:10:32;15.50;74.20
1994;DHT22;998;49.906;10.908;2023-06-05T04:12:59;15.60;73.90
1994;DHT22;998;49.906;10.908;2023-06-05T04:15:28;15.40;74.00
1994;DHT22;998;49.906;10.908;2023-06-05T04:17:56;15.50;74.40
1994;DHT22;998;49.906;10.908;2023-06-05T04:20:24;15.50;74.10
1994;DHT22;998;49.906;10.908;2023-06-05T04:22:51;15.50;74.40
1994;DHT22;998;49.906;10.908;2023-06-05T04:25:18;15.60;74.30
1994;DHT22;998;49.906;10.908;2023-06-05T04:27:47;15.50;74.50
1994;DHT22;998;49.906;10.908;2023-06-05T04:30:16;15.50;74.80
1994;DHT22;998;49.906;10.908;2023-06-05T04:32:44;15.40;75.20
1994;DHT22;998;49.906;10.908;2023-06-05T04:35:20;15.50;75.30
1994;DHT22;998;49.906;10.908;2023-06-05T04:37:48;15.50;75.80
1994;DHT22;998;49.906;10.908;2023-06-05T04:40:17;15.50;75.60
1994;DHT22;998;49.906;10.908;2023-06-05T04:42:46;15.60;76.20
1994;DHT22;998;49.906;10.908;2023-06-05T04:45:14;15.50;76.40
1994;DHT22;998;49.906;10.908;2023-06-05T04:47:43;15.60;76.50
1994;DHT22;998;49.906;10.908;2023-06-05T04:50:22;15.40;77.00
1994;DHT22;998;49.906;10.908;2023-06-05T04:52:51;15.50;77.10
1994;DHT22;998;49.906;10.908;2023-06-05T04:55:19;15.50;77.70
1994;DHT22;998;49.906;10.908;2023-06-05T04:57:47;15.60;76.70
1994;DHT22;998;49.906;10.908;2023-06-05T05:00:15;15.50;76.70
1994;DHT22;998;49.906;10.908;2023-06-05T05:02:44;15.60;76.80
1994;DHT22;998;49.906;10.908;2023-06-05T05:05:11;15.60;76.90
1994;DHT22;998;49.906;10.908;2023-06-05T05:07:40;15.60;77.60
1994;DHT22;998;49.906;10.908;2023-06-05T05:10:08;15.50;77.00
1994;DHT22;998;49.906;10.908;2023-06-05T05:12:36;15.50;77.20
1994;DHT22;998;49.906;10.908;2023-06-05T05:15:04;15.50;77.50
1994;DHT22;998;49.906;10.908;2023-06-05T05:17:32;15.60;77.30
1994;DHT22;998;49.906;10.908;2023-06-05T05:20:02;15.60;77.00
1994;DHT22;998;49.906;10.908;2023-06-05T05:22:32;15.60;77.00
1994;DHT22;998;49.906;10.908;2023-06-05T05:25:00;15.70;77.50
1994;DHT22;998;49.906;10.908;2023-06-05T05:27:27;15.70;77.30
1994;DHT22;998;49.906;10.908;2023-06-05T05:29:54;15.70;77.40
1994;DHT22;998;49.906;10.908;2023-06-05T05:32:22;15.70;77.30
1994;DHT22;998;49.906;10.908;2023-06-05T05:34:49;15.70;77.20
1994;DHT22;998;49.906;10.908;2023-06-05T05:37:19;15.70;77.00
1994;DHT22;998;49.906;10.908;2023-06-05T05:39:46;15.70;78.00
1994;DHT22;998;49.906;10.908;2023-06-05T05:42:14;15.60;77.70
1994;DHT22;998;49.906;10.908;2023-06-05T05:44:42;15.80;77.60
1994;DHT22;998;49.906;10.908;2023-06-05T05:47:10;15.90;77.40
1994;DHT22;998;49.906;10.908;2023-06-05T05:49:37;15.80;77.40
1994;DHT22;998;49.906;10.908;2023-06-05T05:52:04;16.00;77.80
1994;DHT22;998;49.906;10.908;2023-06-05T05:54:33;16.00;77.50
1994;DHT22;998;49.906;10.908;2023-06-05T05:57:01;16.00;77.50
1994;DHT22;998;49.906;10.908;2023-06-05T05:59:30;15.80;77.80
1994;DHT22;998;49.906;10.908;2023-06-05T06:01:57;15.90;78.20
1994;DHT22;998;49.906;10.908;2023-06-05T06:04:26;15.90;78.60
1994;DHT22;998;49.906;10.908;2023-06-05T06:06:54;16.00;78.90
1994;DHT22;998;49.906;10.908;2023-06-05T06:09:22;16.00;78.30
1994;DHT22;998;49.906;10.908;2023-06-05T06:11:52;16.10;78.70
1994;DHT22;998;49.906;10.908;2023-06-05T06:14:21;16.20;78.30
1994;DHT22;998;49.906;10.908;2023-06-05T06:16:48;16.20;79.10
1994;DHT22;998;49.906;10.908;2023-06-05T06:19:17;16.30;78.40
1994;DHT22;998;49.906;10.908;2023-06-05T06:21:48;16.40;77.80
1994;DHT22;998;49.906;10.908;2023-06-05T06:24:17;16.40;77.70
1994;DHT22;998;49.906;10.908;2023-06-05T06:26:46;16.50;77.10
1994;DHT22;998;49.906;10.908;2023-06-05T06:29:18;16.60;77.60
1994;DHT22;998;49.906;10.908;2023-06-05T06:31:46;16.70;77.20
1994;DHT22;998;49.906;10.908;2023-06-05T06:34:13;16.70;77.40
1994;DHT22;998;49.906;10.908;2023-06-05T06:36:40;16.70;76.90
1994;DHT22;998;49.906;10.908;2023-06-05T06:39:10;16.80;77.50
1994;DHT22;998;49.906;10.908;2023-06-05T06:41:38;16.80;77.50
1994;DHT22;998;49.906;10.908;2023-06-05T06:44:05;16.80;77.50
1994;DHT22;998;49.906;10.908;2023-06-05T06:46:34;16.90;77.70
1994;DHT22;998;49.906;10.908;2023-06-05T06:49:02;16.90;78.00
1994;DHT22;998;49.906;10.908;2023-06-05T06:51:29;17.00;78.70
1994;DHT22;998;49.906;10.908;2023-06-05T06:53:58;17.10;78.70
1994;DHT22;998;49.906;10.908;2023-06-05T06:56:25;17.10;79.00
1994;DHT22;998;49.906;10.908;2023-06-05T06:58:53;17.20;79.00
1994;DHT22;998;49.906;10.908;2023-06-05T07:01:21;17.20;78.10
1994;DHT22;998;49.906;10.908;2023-06-05T07:03:51;17.20;78.70
1994;DHT22;998;49.906;10.908;2023-06-05T07:06:18;17.30;78.90
1994;DHT22;998;49.906;10.908;2023-06-05T07:08:47;17.30;78.20
1994;DHT22;998;49.906;10.908;2023-06-05T07:11:16;17.40;79.00
1994;DHT22;998;49.906;10.908;2023-06-05T07:13:43;17.40;79.00
1994;DHT22;998;49.906;10.908;2023-06-05T07:16:10;17.50;78.40
1994;DHT22;998;49.906;10.908;2023-06-05T07:18:38;17.50;78.30
1994;DHT22;998;49.906;10.908;2023-06-05T07:21:07;17.50;78.70
1994;DHT22;998;49.906;10.908;2023-06-05T07:23:35;17.60;78.70
1994;DHT22;998;49.906;10.908;2023-06-05T07:26:02;17.60;78.60
1994;DHT22;998;49.906;10.908;2023-06-05T07:28:30;17.60;79.30
1994;DHT22;998;49.906;10.908;2023-06-05T07:30:57;17.60;78.80
1994;DHT22;998;49.906;10.908;2023-06-05T07:33:29;17.70;79.00
1994;DHT22;998;49.906;10.908;2023-06-05T07:35:58;17.70;79.30
1994;DHT22;998;49.906;10.908;2023-06-05T07:38:27;17.70;79.80
1994;DHT22;998;49.906;10.908;2023-06-05T07:40:55;17.80;80.40
1994;DHT22;998;49.906;10.908;2023-06-05T07:43:24;17.80;80.20
1994;DHT22;998;49.906;10.908;2023-06-05T07:45:51;17.90;79.90
1994;DHT22;998;49.906;10.908;2023-06-05T07:48:19;18.00;79.90
1994;DHT22;998;49.906;10.908;2023-06-05T07:50:46;18.00;79.60
1994;DHT22;998;49.906;10.908;2023-06-05T07:53:13;18.00;79.80
1994;DHT22;998;49.906;10.908;2023-06-05T07:55:42;18.10;80.60
1994;DHT22;998;49.906;10.908;2023-06-05T07:58:10;18.20;80.70
1994;DHT22;998;49.906;10.908;2023-06-05T08:00:37;18.30;80.10
1994;DHT22;998;49.906;10.908;2023-06-05T08:03:07;18.40;80.90
1994;DHT22;998;49.906;10.908;2023-06-05T08:05:34;18.40;81.10
1994;DHT22;998;49.906;10.908;2023-06-05T08:08:02;18.40;80.40
1994;DHT22;998;49.906;10.908;2023-06-05T08:10:29;18.40;79.10
1994;DHT22;998;49.906;10.908;2023-06-05T08:12:58;18.40;79.80
1994;DHT22;998;49.906;10.908;2023-06-05T08:15:25;18.50;80.00
1994;DHT22;998;49.906;10.908;2023-06-05T08:17:53;18.60;79.00
1994;DHT22;998;49.906;10.908;2023-06-05T08:20:20;18.90;77.10
1994;DHT22;998;49.906;10.908;2023-06-05T08:22:47;19.20;75.70
1994;DHT22;998;49.906;10.908;2023-06-05T08:25:15;19.20;75.50
1994;DHT22;998;49.906;10.908;2023-06-05T08:27:42;19.40;74.50
1994;DHT22;998;49.906;10.908;2023-06-05T08:30:12;19.60;74.00
1994;DHT22;998;49.906;10.908;2023-06-05T08:32:39;19.60;73.80
1994;DHT22;998;49.906;10.908;2023-06-05T08:35:07;19.60;74.20
1994;DHT22;998;49.906;10.908;2023-06-05T08:37:35;19.70;73.60
1994;DHT22;998;49.906;10.908;2023-06-05T08:40:03;19.70;74.90
1994;DHT22;998;49.906;10.908;2023-06-05T08:42:34;19.70;75.00
1994;DHT22;998;49.906;10.908;2023-06-05T08:45:01;19.90;76.10
1994;DHT22;998;49.906;10.908;2023-06-05T08:47:30;19.90;75.50
1994;DHT22;998;49.906;10.908;2023-06-05T08:50:02;19.90;76.00
1994;DHT22;998;49.906;10.908;2023-06-05T08:52:32;19.90;76.60
1994;DHT22;998;49.906;10.908;2023-06-05T08:55:00;20.00;77.70
1994;DHT22;998;49.906;10.908;2023-06-05T08:57:28;20.00;77.40
1994;DHT22;998;49.906;10.908;2023-06-05T08:59:56;20.00;77.80
1994;DHT22;998;49.906;10.908;2023-06-05T09:02:25;20.20;78.30
1994;DHT22;998;49.906;10.908;2023-06-05T09:04:53;20.10;77.50
1994;DHT22;998;49.906;10.908;2023-06-05T09:07:23;20.10;76.60
1994;DHT22;998;49.906;10.908;2023-06-05T09:09:53;20.20;76.80
1994;DHT22;998;49.906;10.908;2023-06-05T09:12:20;20.20;77.10
1994;DHT22;998;49.906;10.908;2023-06-05T09:14:49;20.20;78.50
1994;DHT22;998;49.906;10.908;2023-06-05T09:17:16;20.30;78.10
1994;DHT22;998;49.906;10.908;2023-06-05T09:19:44;20.30;78.00
1994;DHT22;998;49.906;10.908;2023-06-05T09:22:15;20.40;77.70
1994;DHT22;998;49.906;10.908;2023-06-05T09:24:43;20.60;77.70
1994;DHT22;998;49.906;10.908;2023-06-05T09:27:16;20.70;78.00
1994;DHT22;998;49.906;10.908;2023-06-05T09:29:44;20.70;77.80
1994;DHT22;998;49.906;10.908;2023-06-05T09:32:16;20.80;77.50
1994;DHT22;998;49.906;10.908;2023-06-05T09:34:47;20.80;76.70
1994;DHT22;998;49.906;10.908;2023-06-05T09:37:34;20.90;77.60
1994;DHT22;998;49.906;10.908;2023-06-05T09:40:02;20.90;77.10
1994;DHT22;998;49.906;10.908;2023-06-05T09:42:34;21.10;77.00
1994;DHT22;998;49.906;10.908;2023-06-05T09:45:03;21.10;75.80
1994;DHT22;998;49.906;10.908;2023-06-05T09:47:31;21.20;75.80
1994;DHT22;998;49.906;10.908;2023-06-05T09:49:58;21.20;75.70
1994;DHT22;998;49.906;10.908;2023-06-05T09:52:25;21.20;76.00
1994;DHT22;998;49.906;10.908;2023-06-05T09:54:56;21.20;75.70
1994;DHT22;998;49.906;10.908;2023-06-05T09:57:27;21.30;75.60
1994;DHT22;998;49.906;10.908;2023-06-05T09:59:55;21.40;76.00
1994;DHT22;998;49.906;10.908;2023-06-05T10:02:25;21.40;75.80
1994;DHT22;998;49.906;10.908;2023-06-05T10:04:57;21.50;75.80
1994;DHT22;998;49.906;10.908;2023-06-05T10:07:27;21.40;75.30
1994;DHT22;998;49.906;10.908;2023-06-05T10:09:57;21.50;76.50
1994;DHT22;998;49.906;10.908;2023-06-05T10:12:25;21.70;76.50
1994;DHT22;998;49.906;10.908;2023-06-05T10:14:54;21.90;76.20
1994;DHT22;998;49.906;10.908;2023-06-05T10:17:22;21.90;75.10
1994;DHT22;998;49.906;10.908;2023-06-05T10:19:50;21.70;75.00
1994;DHT22;998;49.906;10.908;2023-06-05T10:22:18;21.60;75.00
1994;DHT22;998;49.906;10.908;2023-06-05T10:24:48;21.70;76.10
1994;DHT22;998;49.906;10.908;2023-06-05T10:27:50;21.70;76.10
1994;DHT22;998;49.906;10.908;2023-06-05T10:30:59;21.80;76.10
1994;DHT22;998;49.906;10.908;2023-06-05T10:33:45;21.90;76.60
1994;DHT22;998;49.906;10.908;2023-06-05T10:36:27;21.90;76.70
1994;DHT22;998;49.906;10.908;2023-06-05T10:39:06;22.10;77.00
1994;DHT22;998;49.906;10.908;2023-06-05T10:41:34;22.40;77.60
1994;DHT22;998;49.906;10.908;2023-06-05T10:44:03;22.40;76.80
1994;DHT22;998;49.906;10.908;2023-06-05T10:46:32;22.50;77.90
1994;DHT22;998;49.906;10.908;2023-06-05T10:49:07;22.60;78.40
1994;DHT22;998;49.906;10.908;2023-06-05T10:51:36;22.80;77.60
1994;DHT22;998;49.906;10.908;2023-06-05T10:54:06;22.90;76.70
1994;DHT22;998;49.906;10.908;2023-06-05T10:56:53;22.80;76.70
1994;DHT22;998;49.906;10.908;2023-06-05T10:59:24;22.70;77.30
1994;DHT22;998;49.906;10.908;2023-06-05T11:02:22;22.60;77.60
1994;DHT22;998;49.906;10.908;2023-06-05T11:05:11;22.90;78.60
1994;DHT22;998;49.906;10.908;2023-06-05T11:07:39;23.20;79.10
1994;DHT22;998;49.906;10.908;2023-06-05T11:10:14;23.40;77.70
1994;DHT22;998;49.906;10.908;2023-06-05T11:12:57;23.50;76.70
1994;DHT22;998;49.906;10.908;2023-06-05T11:15:42;23.60;76.20
1994;DHT22;998;49.906;10.908;2023-06-05T11:18:32;23.60;76.90
1994;DHT22;998;49.906;10.908;2023-06-05T11:21:01;23.50;76.80
1994;DHT22;998;49.906;10.908;2023-06-05T11:23:29;23.60;77.00
1994;DHT22;998;49.906;10.908;2023-06-05T11:26:37;23.50;76.00
1994;DHT22;998;49.906;10.908;2023-06-05T11:28:46;23.30;76.00
1994;DHT22;998;49.906;10.908;2023-06-05T11:31:28;23.30;77.20
1994;DHT22;998;49.906;10.908;2023-06-05T11:33:57;23.20;77.50
1994;DHT22;998;49.906;10.908;2023-06-05T11:36:24;23.10;78.20
1994;DHT22;998;49.906;10.908;2023-06-05T11:38:53;23.10;78.90
1994;DHT22;998;49.906;10.908;2023-06-05T11:41:21;23.10;79.30
1994;DHT22;998;49.906;10.908;2023-06-05T11:43:50;23.10;78.90
1994;DHT22;998;49.906;10.908;2023-06-05T11:46:19;23.30;79.60
1994;DHT22;998;49.906;10.908;2023-06-05T11:48:46;23.50;80.30
1994;DHT22;998;49.906;10.908;2023-06-05T11:51:14;23.80;79.00
1994;DHT22;998;49.906;10.908;2023-06-05T11:53:45;24.00;78.00
1994;DHT22;998;49.906;10.908;2023-06-05T11:56:15;23.90;78.20
1994;DHT22;998;49.906;10.908;2023-06-05T11:58:44;23.80;78.40
1994;DHT22;998;49.906;10.908;2023-06-05T12:01:13;23.70;78.20
1994;DHT22;998;49.906;10.908;2023-06-05T12:03:45;23.70;78.40
1994;DHT22;998;49.906;10.908;2023-06-05T12:06:14;23.80;79.30
1994;DHT22;998;49.906;10.908;2023-06-05T12:08:42;24.20;79.20
1994;DHT22;998;49.906;10.908;2023-06-05T12:11:23;24.40;79.60
1994;DHT22;998;49.906;10.908;2023-06-05T12:13:52;24.40;77.00
1994;DHT22;998;49.906;10.908;2023-06-05T12:16:21;24.50;78.20
1994;DHT22;998;49.906;10.908;2023-06-05T12:18:58;24.40;77.50
1994;DHT22;998;49.906;10.908;2023-06-05T12:21:26;24.20;77.40
1994;DHT22;998;49.906;10.908;2023-06-05T12:24:01;24.00;78.10
1994;DHT22;998;49.906;10.908;2023-06-05T12:26:29;24.20;78.90
1994;DHT22;998;49.906;10.908;2023-06-05T12:29:04;24.40;78.10
1994;DHT22;998;49.906;10.908;2023-06-05T12:31:32;24.30;77.90
1994;DHT22;998;49.906;10.908;2023-06-05T12:34:02;24.10;78.60
1994;DHT22;998;49.906;10.908;2023-06-05T12:36:31;24.00;78.60
1994;DHT22;998;49.906;10.908;2023-06-05T12:39:05;24.00;78.70
1994;DHT22;998;49.906;10.908;2023-06-05T12:41:33;24.70;78.80
1994;DHT22;998;49.906;10.908;2023-06-05T12:44:01;25.40;77.60
1994;DHT22;998;49.906;10.908;2023-06-05T12:46:30;26.00;75.80
1994;DHT22;998;49.906;10.908;2023-06-05T12:48:58;26.30;75.70
1994;DHT22;998;49.906;10.908;2023-06-05T12:51:27;25.70;74.70
1994;DHT22;998;49.906;10.908;2023-06-05T12:53:55;25.40;75.70
1994;DHT22;998;49.906;10.908;2023-06-05T12:56:23;25.70;74.60
1994;DHT22;998;49.906;10.908;2023-06-05T12:58:51;26.20;74.60
1994;DHT22;998;49.906;10.908;2023-06-05T13:01:21;26.60;74.40
1994;DHT22;998;49.906;10.908;2023-06-05T13:03:49;26.90;73.70
1994;DHT22;998;49.906;10.908;2023-06-05T13:06:17;27.00;72.30
1994;DHT22;998;49.906;10.908;2023-06-05T13:08:46;26.50;71.30
1994;DHT22;998;49.906;10.908;2023-06-05T13:11:13;26.00;72.50
1994;DHT22;998;49.906;10.908;2023-06-05T13:13:40;25.70;73.60
1994;DHT22;998;49.906;10.908;2023-06-05T13:16:09;25.40;73.50
1994;DHT22;998;49.906;10.908;2023-06-05T13:18:36;25.10;74.40
1994;DHT22;998;49.906;10.908;2023-06-05T13:21:03;24.90;75.10
1994;DHT22;998;49.906;10.908;2023-06-05T13:23:31;24.80;76.30
1994;DHT22;998;49.906;10.908;2023-06-05T13:26:00;24.80;76.30
1994;DHT22;998;49.906;10.908;2023-06-05T13:28:28;25.30;75.50
1994;DHT22;998;49.906;10.908;2023-06-05T13:30:56;25.30;73.70
1994;DHT22;998;49.906;10.908;2023-06-05T13:33:24;25.10;73.40
1994;DHT22;998;49.906;10.908;2023-06-05T13:35:52;24.90;74.50
1994;DHT22;998;49.906;10.908;2023-06-05T13:38:20;24.70;75.20
1994;DHT22;998;49.906;10.908;2023-06-05T13:40:49;24.60;75.60
1994;DHT22;998;49.906;10.908;2023-06-05T13:43:19;24.80;76.30
1994;DHT22;998;49.906;10.908;2023-06-05T13:45:47;24.80;75.90
1994;DHT22;998;49.906;10.908;2023-06-05T13:48:14;25.00;75.80
1994;DHT22;998;49.906;10.908;2023-06-05T13:50:42;25.30;74.50
1994;DHT22;998;49.906;10.908;2023-06-05T13:53:10;25.20;74.60
1994;DHT22;998;49.906;10.908;2023-06-05T13:55:37;25.00;74.90
1994;DHT22;998;49.906;10.908;2023-06-05T13:58:05;24.90;74.90
1994;DHT22;998;49.906;10.908;2023-06-05T14:00:34;24.80;75.20
1994;DHT22;998;49.906;10.908;2023-06-05T14:03:02;24.80;75.60
1994;DHT22;998;49.906;10.908;2023-06-05T14:05:30;25.30;75.30
1994;DHT22;998;49.906;10.908;2023-06-05T14:07:58;25.80;73.70
1994;DHT22;998;49.906;10.908;2023-06-05T14:10:25;26.40;73.30
1994;DHT22;998;49.906;10.908;2023-06-05T14:12:53;26.80;71.00
1994;DHT22;998;49.906;10.908;2023-06-05T14:15:20;26.60;69.10
1994;DHT22;998;49.906;10.908;2023-06-05T14:17:51;26.70;69.90
1994;DHT22;998;49.906;10.908;2023-06-05T14:20:19;27.00;70.40
1994;DHT22;998;49.906;10.908;2023-06-05T14:22:47;27.20;69.20
1994;DHT22;998;49.906;10.908;2023-06-05T14:25:14;27.30;69.60
1994;DHT22;998;49.906;10.908;2023-06-05T14:27:42;27.30;68.20
1994;DHT22;998;49.906;10.908;2023-06-05T14:30:10;27.20;67.30
1994;DHT22;998;49.906;10.908;2023-06-05T14:32:37;26.80;68.10
1994;DHT22;998;49.906;10.908;2023-06-05T14:35:07;26.70;68.90
1994;DHT22;998;49.906;10.908;2023-06-05T14:37:34;26.90;68.90
1994;DHT22;998;49.906;10.908;2023-06-05T14:40:01;26.90;68.30
1994;DHT22;998;49.906;10.908;2023-06-05T14:42:30;27.00;68.50
1994;DHT22;998;49.906;10.908;2023-06-05T14:44:57;27.10;67.80
1994;DHT22;998;49.906;10.908;2023-06-05T14:47:25;26.90;67.40
1994;DHT22;998;49.906;10.908;2023-06-05T14:49:52;27.10;66.90
1994;DHT22;998;49.906;10.908;2023-06-05T14:52:21;27.00;66.80
1994;DHT22;998;49.906;10.908;2023-06-05T14:54:48;26.70;66.90
1994;DHT22;998;49.906;10.908;2023-06-05T14:57:15;26.70;67.90
1994;DHT22;998;49.906;10.908;2023-06-05T14:59:43;27.00;67.50
1994;DHT22;998;49.906;10.908;2023-06-05T15:02:10;27.00;67.90
1994;DHT22;998;49.906;10.908;2023-06-05T15:04:37;27.20;67.50
1994;DHT22;998;49.906;10.908;2023-06-05T15:07:05;27.20;66.80
1994;DHT22;998;49.906;10.908;2023-06-05T15:09:34;27.00;66.30
1994;DHT22;998;49.906;10.908;2023-06-05T15:12:01;26.80;66.70
1994;DHT22;998;49.906;10.908;2023-06-05T15:14:31;26.80;66.80
1994;DHT22;998;49.906;10.908;2023-06-05T15:16:58;26.50;67.50
1994;DHT22;998;49.906;10.908;2023-06-05T15:19:26;26.30;68.00
1994;DHT22;998;49.906;10.908;2023-06-05T15:21:53;26.10;68.30
1994;DHT22;998;49.906;10.908;2023-06-05T15:24:20;26.20;68.60
1994;DHT22;998;49.906;10.908;2023-06-05T15:26:49;26.40;68.70
1994;DHT22;998;49.906;10.908;2023-06-05T15:29:16;26.70;68.00
1994;DHT22;998;49.906;10.908;2023-06-05T15:31:43;26.90;67.20
1994;DHT22;998;49.906;10.908;2023-06-05T15:34:12;27.10;67.40
1994;DHT22;998;49.906;10.908;2023-06-05T15:36:39;27.10;67.10
1994;DHT22;998;49.906;10.908;2023-06-05T15:39:07;27.20;66.70
1994;DHT22;998;49.906;10.908;2023-06-05T15:41:34;27.00;65.30
1994;DHT22;998;49.906;10.908;2023-06-05T15:44:03;26.70;65.40
1994;DHT22;998;49.906;10.908;2023-06-05T15:46:30;26.30;66.40
1994;DHT22;998;49.906;10.908;2023-06-05T15:48:58;26.10;66.00
1994;DHT22;998;49.906;10.908;2023-06-05T15:51:25;26.00;66.70
1994;DHT22;998;49.906;10.908;2023-06-05T15:53:54;26.10;67.10
1994;DHT22;998;49.906;10.908;2023-06-05T15:56:23;26.20;66.90
1994;DHT22;998;49.906;10.908;2023-06-05T15:58:51;26.30;67.60
1994;DHT22;998;49.906;10.908;2023-06-05T16:01:19;26.10;67.40
1994;DHT22;998;49.906;10.908;2023-06-05T16:03:47;26.10;67.30
1994;DHT22;998;49.906;10.908;2023-06-05T16:06:16;26.20;67.30
1994;DHT22;998;49.906;10.908;2023-06-05T16:08:43;26.50;67.20
1994;DHT22;998;49.906;10.908;2023-06-05T16:11:11;26.40;65.80
1994;DHT22;998;49.906;10.908;2023-06-05T16:13:38;26.20;66.20
1994;DHT22;998;49.906;10.908;2023-06-05T16:16:06;26.10;65.30